Terminal Aerodrome Forecast
Issued by NWS

Home | Current Version | Previous Version | Text Only | Print | Product List | Glossary On
Versions: 1 2 3 4 5 6 7 8 9 10 11 12 13 14 15 16 17 18 19 20 21 22 23 24 25
000
FTUS44 KFWD 250900 AAA
TAFGKY
TAF AMD
KGKY 250900Z 2509/2606 18007KT P6SM FEW250
     FM251600 18019G29KT P6SM FEW250
     FM260100 17017KT P6SM FEW250=

USA.gov is the U.S. government's official web portal to all federal, state and local government web resources and services.